createdAt,value
2022-09-12T00:00:04.237Z,10.40
2022-09-12T00:03:13.755Z,10.55
2022-09-12T00:06:23.176Z,11.35
2022-09-12T00:09:25.795Z,10.38
2022-09-12T00:12:27.969Z,10.15
2022-09-12T00:15:30.198Z,9.50
2022-09-12T00:18:32.825Z,8.82
2022-09-12T00:21:36.110Z,12.32
2022-09-12T00:24:40.853Z,10.50
2022-09-12T00:27:43.231Z,10.23
2022-09-12T00:30:46.813Z,11.07
2022-09-12T00:33:49.213Z,11.32
2022-09-12T00:36:51.668Z,10.18
2022-09-12T00:39:53.958Z,9.82
2022-09-12T00:42:56.375Z,9.98
2022-09-12T00:45:59.428Z,11.17
2022-09-12T00:49:01.875Z,9.80
2022-09-12T00:52:07.248Z,11.05
2022-09-12T00:55:30.785Z,8.95
2022-09-12T00:58:36.996Z,8.55
2022-09-12T01:01:40.408Z,9.17
2022-09-12T01:04:43.465Z,9.93
2022-09-12T01:07:48.816Z,9.57
2022-09-12T01:10:50.968Z,8.90
2022-09-12T01:13:53.107Z,8.57
2022-09-12T01:16:55.387Z,8.80
2022-09-12T01:20:16.007Z,9.85
2022-09-12T01:23:20.856Z,9.15
2022-09-12T01:26:41.674Z,8.90
2022-09-12T01:29:56.602Z,8.18
2022-09-12T01:32:58.730Z,9.77
2022-09-12T01:36:08.811Z,9.50
2022-09-12T01:39:25.514Z,8.82
2022-09-12T01:42:35.031Z,8.90
2022-09-12T01:45:44.048Z,8.88
2022-09-12T01:48:57.660Z,8.57
2022-09-12T01:52:21.436Z,9.02
2022-09-12T01:55:43.458Z,8.13
2022-09-12T01:58:49.408Z,8.45
2022-09-12T02:01:56.583Z,8.90
2022-09-12T02:05:02.653Z,8.47
2022-09-12T02:08:18.965Z,8.18
2022-09-12T02:11:21.290Z,9.05
2022-09-12T02:14:36.772Z,9.15
2022-09-12T02:17:42.112Z,9.02
2022-09-12T02:20:48.424Z,14.80
2022-09-12T02:23:55.838Z,14.70
2022-09-12T02:27:00.070Z,11.52
2022-09-12T02:30:02.273Z,11.52
2022-09-12T02:33:15.087Z,10.55
2022-09-12T02:36:28.687Z,9.83
2022-09-12T02:39:31.055Z,9.70
2022-09-12T02:42:33.191Z,9.00
2022-09-12T02:45:35.802Z,8.75
2022-09-12T02:48:41.562Z,11.18
2022-09-12T02:51:44.815Z,7.77
2022-09-12T02:54:47.872Z,10.07
2022-09-12T02:57:50.285Z,11.43
2022-09-12T03:01:19.063Z,13.43
2022-09-12T03:04:37.746Z,13.50
2022-09-12T03:07:58.186Z,17.03
2022-09-12T03:11:03.580Z,13.57
2022-09-12T03:14:17.999Z,15.73
2022-09-12T03:17:26.168Z,15.27
2022-09-12T03:20:31.286Z,16.20
2022-09-12T03:24:05.304Z,18.23
2022-09-12T03:27:13.975Z,16.90
2022-09-12T03:30:16.157Z,20.00
2022-09-12T03:33:19.789Z,17.60
2022-09-12T03:36:26.443Z,19.42
2022-09-12T03:39:28.610Z,20.53
2022-09-12T03:42:30.779Z,22.80
2022-09-12T03:45:32.927Z,20.02
2022-09-12T03:48:35.208Z,18.55
2022-09-12T03:51:37.896Z,18.65
2022-09-12T03:54:40.045Z,19.60
2022-09-12T03:57:42.151Z,22.05
2022-09-12T04:00:44.389Z,17.80
2022-09-12T04:03:47.903Z,19.13
2022-09-12T04:06:50.095Z,20.40
2022-09-12T04:09:53.268Z,18.20
2022-09-12T04:12:55.677Z,19.50
2022-09-12T04:15:59.372Z,19.98
2022-09-12T04:19:01.745Z,17.83
2022-09-12T04:22:04.145Z,17.83
2022-09-12T04:25:06.818Z,18.00
2022-09-12T04:28:09.000Z,19.55
2022-09-12T04:31:18.158Z,12.23
2022-09-12T04:34:20.487Z,11.63
2022-09-12T04:37:23.667Z,10.07
2022-09-12T04:40:25.778Z,9.23
2022-09-12T04:43:28.039Z,9.25
2022-09-12T04:46:31.571Z,10.32
2022-09-12T04:49:33.911Z,8.32
2022-09-12T04:52:36.052Z,5.65
2022-09-12T04:55:38.228Z,5.63
2022-09-12T04:58:40.473Z,5.57
2022-09-12T05:01:42.978Z,4.97
2022-09-12T05:04:46.967Z,6.10
2022-09-12T05:07:49.241Z,5.97
2022-09-12T05:10:51.396Z,5.47
2022-09-12T05:13:54.452Z,3.13
2022-09-12T05:17:00.991Z,4.93
2022-09-12T05:20:03.737Z,5.07
2022-09-12T05:23:05.923Z,5.07
2022-09-12T05:26:10.820Z,4.23
2022-09-12T05:29:13.286Z,4.03
2022-09-12T05:32:15.533Z,6.07
2022-09-12T05:35:18.974Z,5.20
2022-09-12T05:38:22.237Z,6.95
2022-09-12T05:41:27.144Z,4.10
2022-09-12T05:44:29.488Z,4.40
2022-09-12T05:47:31.889Z,5.35
2022-09-12T05:50:36.905Z,5.35
2022-09-12T05:53:44.381Z,5.03
2022-09-12T05:56:48.598Z,4.50
2022-09-12T05:59:51.194Z,6.53
2022-09-12T06:02:53.554Z,6.32
2022-09-12T06:05:57.572Z,4.97
2022-09-12T06:09:03.286Z,6.07
2022-09-12T06:12:05.697Z,5.10
2022-09-12T06:15:08.160Z,6.88
2022-09-12T06:18:10.360Z,6.10
2022-09-12T06:21:12.993Z,4.10
2022-09-12T06:24:18.796Z,5.50
2022-09-12T06:27:20.965Z,4.53
2022-09-12T06:30:25.447Z,6.32
2022-09-12T06:33:27.927Z,5.40
2022-09-12T06:36:31.718Z,5.28
2022-09-12T06:39:35.897Z,5.32
2022-09-12T06:42:38.327Z,5.53
2022-09-12T06:45:40.728Z,5.80
2022-09-12T06:48:43.157Z,6.05
2022-09-12T06:51:48.502Z,4.70
2022-09-12T06:54:52.672Z,4.90
2022-09-12T06:57:55.626Z,4.67
2022-09-12T07:01:06.724Z,5.15
2022-09-12T07:04:10.548Z,5.28
2022-09-12T07:07:12.861Z,5.63
2022-09-12T07:10:21.612Z,5.78
2022-09-12T07:13:31.471Z,4.43
2022-09-12T07:16:37.459Z,3.47
2022-09-12T07:19:40.057Z,6.00
2022-09-12T07:22:44.110Z,6.63
2022-09-12T07:25:54.048Z,4.95
2022-09-12T07:29:12.728Z,6.00
2022-09-12T07:32:15.396Z,5.93
2022-09-12T07:35:18.384Z,5.72
2022-09-12T07:38:21.317Z,4.85
2022-09-12T07:41:25.185Z,7.82
2022-09-12T07:44:27.744Z,4.43
2022-09-12T07:47:29.998Z,5.72
2022-09-12T07:50:35.872Z,5.40
2022-09-12T07:53:45.455Z,6.90
2022-09-12T07:56:53.683Z,6.68
2022-09-12T07:59:59.907Z,5.03
2022-09-12T08:03:09.486Z,5.25
2022-09-12T08:06:14.010Z,4.32
2022-09-12T08:09:17.726Z,4.75
2022-09-12T08:12:20.679Z,4.78
2022-09-12T08:15:23.639Z,4.90
2022-09-12T08:18:29.609Z,3.40
2022-09-12T08:21:32.783Z,3.47
2022-09-12T08:24:37.861Z,2.28
2022-09-12T08:27:40.829Z,2.75
2022-09-12T08:30:43.126Z,3.43
2022-09-12T08:33:45.878Z,3.83
2022-09-12T08:36:48.287Z,4.32
2022-09-12T08:39:51.269Z,3.17
2022-09-12T08:42:59.832Z,3.30
2022-09-12T08:46:09.802Z,3.17
2022-09-12T08:49:24.716Z,4.47
2022-09-12T08:52:27.569Z,3.40
2022-09-12T08:55:43.203Z,3.35
2022-09-12T08:58:47.647Z,3.25
2022-09-12T09:01:53.968Z,4.30
2022-09-12T09:05:15.527Z,3.22
2022-09-12T09:08:18.319Z,3.65
2022-09-12T09:11:38.941Z,3.97
2022-09-12T09:14:50.997Z,3.45
2022-09-12T09:18:02.364Z,2.83
2022-09-12T09:21:31.394Z,2.85
2022-09-12T09:24:44.685Z,2.72
2022-09-12T09:27:50.512Z,2.58
2022-09-12T09:31:09.541Z,2.83
2022-09-12T09:34:26.511Z,2.23
2022-09-12T09:37:32.759Z,2.75
2022-09-12T09:40:41.323Z,3.13
2022-09-12T09:43:43.566Z,3.22
2022-09-12T09:46:46.128Z,2.22
2022-09-12T09:49:51.234Z,2.93
2022-09-12T09:52:54.605Z,2.05
2022-09-12T09:56:00.351Z,2.97
2022-09-12T09:59:15.943Z,2.78
2022-09-12T10:02:59.247Z,2.67
2022-09-12T10:06:03.876Z,2.57
2022-09-12T10:09:15.802Z,2.42
2022-09-12T10:12:26.411Z,3.33
2022-09-12T10:15:29.502Z,2.95
2022-09-12T10:18:39.756Z,2.53
2022-09-12T10:21:50.676Z,3.37
2022-09-12T10:24:59.876Z,2.70
2022-09-12T10:28:02.911Z,2.38
2022-09-12T10:31:10.826Z,2.63
2022-09-12T10:34:21.269Z,2.15
2022-09-12T10:37:26.698Z,2.30
2022-09-12T10:40:34.546Z,2.35
2022-09-12T10:43:38.041Z,2.33
2022-09-12T10:46:41.295Z,2.25
2022-09-12T10:49:43.979Z,2.50
2022-09-12T10:52:55.641Z,2.43
2022-09-12T10:56:38.149Z,2.47
2022-09-12T10:59:44.285Z,2.80
2022-09-12T11:03:21.107Z,2.95
2022-09-12T11:06:29.931Z,2.10
2022-09-12T11:09:42.731Z,2.27
2022-09-12T11:12:48.126Z,2.40
2022-09-12T11:15:58.414Z,2.50
2022-09-12T11:19:04.319Z,2.72
2022-09-12T11:22:09.822Z,2.47
2022-09-12T11:25:29.861Z,2.37
2022-09-12T11:28:38.478Z,2.63
2022-09-12T11:31:43.500Z,3.35
2022-09-12T11:35:03.958Z,3.20
2022-09-12T11:38:24.561Z,2.45
2022-09-12T11:41:31.561Z,2.43
2022-09-12T11:44:40.365Z,3.17
2022-09-12T11:47:45.382Z,3.92
2022-09-12T11:50:47.736Z,2.08
2022-09-12T11:53:59.724Z,1.70
2022-09-12T11:57:08.122Z,2.67
2022-09-12T12:00:18.510Z,2.85
2022-09-12T12:03:27.279Z,2.03
2022-09-12T12:06:29.569Z,1.90
2022-09-12T12:09:31.913Z,1.98
2022-09-12T12:16:57.002Z,2.17
2022-09-12T12:20:05.513Z,2.75
2022-09-12T12:23:27.281Z,1.88
2022-09-12T12:26:41.410Z,2.05
2022-09-12T12:29:49.235Z,2.37
2022-09-12T12:32:53.139Z,2.05
2022-09-12T12:35:59.766Z,2.88
2022-09-12T12:39:21.078Z,2.60
2022-09-12T12:42:31.290Z,2.08
2022-09-12T12:45:33.828Z,1.60
2022-09-12T12:48:45.316Z,2.63
2022-09-12T12:51:50.303Z,2.47
2022-09-12T12:54:54.355Z,2.05
2022-09-12T12:57:57.791Z,2.72
2022-09-12T13:01:14.569Z,2.00
2022-09-12T13:04:19.164Z,2.42
2022-09-12T13:07:30.172Z,1.52
2022-09-12T13:10:32.728Z,2.47
2022-09-12T13:13:41.278Z,2.45
2022-09-12T13:16:58.847Z,2.33
2022-09-12T13:20:29.662Z,2.90
2022-09-12T13:23:32.799Z,2.28
2022-09-12T13:26:40.713Z,2.88
2022-09-12T13:29:44.178Z,2.25
2022-09-12T13:32:46.658Z,2.80
2022-09-12T13:36:05.543Z,2.42
2022-09-12T13:39:21.294Z,2.30
2022-09-12T13:42:23.544Z,2.92
2022-09-12T13:45:28.811Z,2.15
2022-09-12T13:48:31.190Z,1.60
2022-09-12T13:51:33.511Z,2.15
2022-09-12T13:54:38.993Z,2.50
2022-09-12T13:57:42.202Z,1.83
2022-09-12T14:00:46.334Z,3.05
2022-09-12T14:04:11.659Z,2.13
2022-09-12T14:07:22.206Z,2.17
2022-09-12T14:10:33.458Z,1.77
2022-09-12T14:13:35.827Z,1.88
2022-09-12T14:16:40.027Z,2.13
2022-09-12T14:19:43.173Z,2.43
2022-09-12T14:22:49.323Z,2.03
2022-09-12T14:25:54.376Z,1.70
2022-09-12T14:28:56.850Z,2.00
2022-09-12T14:32:03.556Z,2.17
2022-09-12T14:35:06.725Z,2.03
2022-09-12T14:38:12.141Z,1.17
2022-09-12T14:41:21.426Z,1.67
2022-09-12T14:44:25.424Z,1.63
2022-09-12T14:47:28.529Z,1.83
2022-09-12T14:50:34.869Z,1.40
2022-09-12T14:53:37.622Z,2.00
2022-09-12T14:56:50.275Z,1.73
2022-09-12T15:03:28.230Z,1.45
2022-09-12T15:06:36.854Z,1.17
2022-09-12T15:09:46.421Z,1.23
2022-09-12T15:12:49.583Z,1.40
2022-09-12T15:15:56.228Z,2.28
2022-09-12T15:18:58.510Z,1.42
2022-09-12T15:22:00.717Z,2.20
2022-09-12T15:25:03.221Z,1.35
2022-09-12T15:28:26.866Z,1.20
2022-09-12T15:31:29.868Z,1.63
2022-09-12T15:34:32.429Z,1.85
2022-09-12T15:37:34.623Z,1.30
2022-09-12T15:40:36.806Z,1.65
2022-09-12T15:43:39.206Z,1.48
2022-09-12T15:46:41.533Z,1.80
2022-09-12T15:49:43.844Z,1.40
2022-09-12T15:52:46.776Z,1.40
2022-09-12T15:55:49.186Z,2.00
2022-09-12T15:59:00.078Z,1.20
2022-09-12T16:02:02.700Z,1.20
2022-09-12T16:05:05.467Z,0.90
2022-09-12T16:08:07.718Z,2.50
2022-09-12T16:11:20.806Z,1.05
2022-09-12T16:14:23.076Z,1.00
2022-09-12T16:17:25.295Z,1.30
2022-09-12T16:20:27.767Z,2.00
2022-09-12T16:23:30.091Z,1.57
2022-09-12T16:26:32.244Z,1.67
2022-09-12T16:29:34.684Z,2.03
2022-09-12T16:32:37.138Z,1.23
2022-09-12T16:35:39.900Z,1.55
2022-09-12T16:38:43.305Z,1.43
2022-09-12T16:41:45.910Z,1.60
2022-09-12T16:44:48.450Z,1.20
2022-09-12T16:47:51.282Z,1.35
2022-09-12T16:51:02.023Z,1.08
2022-09-12T16:54:04.353Z,1.40
2022-09-12T16:57:06.825Z,1.55
2022-09-12T17:00:09.550Z,1.48
2022-09-12T17:03:11.902Z,1.40
2022-09-12T17:06:16.306Z,1.73
2022-09-12T17:09:19.013Z,1.87
2022-09-12T17:12:21.313Z,2.42
2022-09-12T17:15:23.845Z,1.73
2022-09-12T17:18:26.359Z,2.53
2022-09-12T17:21:29.035Z,2.20
2022-09-12T17:24:31.529Z,1.67
2022-09-12T17:27:34.356Z,2.40
2022-09-12T17:30:36.600Z,2.90
2022-09-12T17:33:39.813Z,2.85
2022-09-12T17:36:44.437Z,3.80
2022-09-12T17:39:46.930Z,3.80
2022-09-12T17:42:49.269Z,2.30
2022-09-12T17:45:55.639Z,2.70
2022-09-12T17:48:58.025Z,2.72
2022-09-12T17:52:00.845Z,1.88
2022-09-12T17:55:03.412Z,2.63
2022-09-12T17:58:05.661Z,2.15
2022-09-12T18:01:29.562Z,3.60
2022-09-12T18:04:31.916Z,2.47
2022-09-12T18:07:39.896Z,1.70
2022-09-12T18:10:44.312Z,2.53
2022-09-12T18:13:46.797Z,3.28
2022-09-12T18:16:49.078Z,4.47
2022-09-12T18:19:53.809Z,3.33
2022-09-12T18:22:56.250Z,2.92
2022-09-12T18:25:59.349Z,3.77
2022-09-12T18:29:01.751Z,3.67
2022-09-12T18:32:04.266Z,3.83
2022-09-12T18:35:06.761Z,3.88
2022-09-12T18:38:08.996Z,3.65
2022-09-12T18:41:29.557Z,3.87
2022-09-12T18:44:31.981Z,3.95
2022-09-12T18:47:34.126Z,3.63
2022-09-12T18:50:36.676Z,4.13
2022-09-12T18:53:39.350Z,4.30
2022-09-12T18:56:43.918Z,5.27
2022-09-12T18:59:46.197Z,3.90
2022-09-12T19:02:48.426Z,4.20
2022-09-12T19:05:50.706Z,5.57
2022-09-12T19:08:53.687Z,4.72
2022-09-12T19:11:55.903Z,5.17
2022-09-12T19:14:58.589Z,5.40
2022-09-12T19:18:00.798Z,4.68
2022-09-12T19:21:03.951Z,4.70
2022-09-12T19:24:07.536Z,4.68
2022-09-12T19:27:11.978Z,4.33
2022-09-12T19:30:14.205Z,3.92
2022-09-12T19:33:16.683Z,4.35
2022-09-12T19:36:43.916Z,4.93
2022-09-12T19:39:44.507Z,6.25
2022-09-12T19:42:46.714Z,6.13
2022-09-12T19:45:48.977Z,5.13
2022-09-12T19:48:52.496Z,4.13
2022-09-12T19:51:55.149Z,4.18
2022-09-12T19:54:57.699Z,4.35
2022-09-12T19:58:00.285Z,6.23
2022-09-12T20:01:09.679Z,4.18
2022-09-12T20:04:11.949Z,3.22
2022-09-12T20:07:14.241Z,3.80
2022-09-12T20:10:16.483Z,3.40
2022-09-12T20:13:18.948Z,4.80
2022-09-12T20:16:25.377Z,5.25
2022-09-12T20:19:28.296Z,4.82
2022-09-12T20:22:30.536Z,3.47
2022-09-12T20:25:32.842Z,3.95
2022-09-12T20:28:38.723Z,4.60
2022-09-12T20:31:41.697Z,3.92
2022-09-12T20:34:44.227Z,4.60
2022-09-12T20:37:46.392Z,4.32
2022-09-12T20:40:49.063Z,5.28
2022-09-12T20:43:52.328Z,4.73
2022-09-12T20:46:54.778Z,5.78
2022-09-12T20:49:57.129Z,5.53
2022-09-12T20:53:01.296Z,4.70
2022-09-12T20:56:03.745Z,4.90
2022-09-12T20:59:05.971Z,4.77
2022-09-12T21:02:10.582Z,4.53
2022-09-12T21:05:12.831Z,5.32
2022-09-12T21:08:15.022Z,4.95
2022-09-12T21:11:17.888Z,7.03
2022-09-12T21:14:20.025Z,4.83
2022-09-12T21:17:22.480Z,5.57
2022-09-12T21:20:24.724Z,5.32
2022-09-12T21:23:27.711Z,5.53
2022-09-12T21:26:30.455Z,5.80
2022-09-12T21:29:32.587Z,5.70
2022-09-12T21:32:36.197Z,5.47
2022-09-12T21:35:38.405Z,6.38
2022-09-12T21:38:41.103Z,7.78
2022-09-12T21:41:43.543Z,5.80
2022-09-12T21:44:45.740Z,5.63
2022-09-12T21:47:48.133Z,5.72
2022-09-12T21:50:50.793Z,5.75
2022-09-12T21:53:53.032Z,5.25
2022-09-12T21:56:55.219Z,5.63
2022-09-12T21:59:58.061Z,4.90
2022-09-12T22:03:00.572Z,5.32
2022-09-12T22:06:04.179Z,5.03
2022-09-12T22:09:07.207Z,5.90
2022-09-12T22:12:09.428Z,5.82
2022-09-12T22:15:36.307Z,6.40
2022-09-12T22:18:34.918Z,8.77
2022-09-12T22:21:57.008Z,5.82
2022-09-12T22:24:59.161Z,6.72
2022-09-12T22:28:01.428Z,6.78
2022-09-12T22:31:03.654Z,6.23
2022-09-12T22:34:06.115Z,6.53
2022-09-12T22:37:08.328Z,7.38
2022-09-12T22:40:12.067Z,7.03
2022-09-12T22:43:14.233Z,9.38
2022-09-12T22:46:16.564Z,7.47
2022-09-12T22:49:18.765Z,7.07
2022-09-12T22:52:20.983Z,6.03
2022-09-12T22:55:23.208Z,6.65
2022-09-12T22:58:25.611Z,6.05
2022-09-12T23:01:27.779Z,5.53
2022-09-12T23:04:30.254Z,5.90
2022-09-12T23:07:32.510Z,6.30
2022-09-12T23:10:38.142Z,8.00
2022-09-12T23:13:42.340Z,8.05
2022-09-12T23:16:44.883Z,6.50
2022-09-12T23:19:47.037Z,5.88
2022-09-12T23:22:49.309Z,6.57
2022-09-12T23:26:00.923Z,7.18
2022-09-12T23:29:05.650Z,6.57
2022-09-12T23:32:08.066Z,7.27
2022-09-12T23:35:10.464Z,8.30
2022-09-12T23:38:14.762Z,7.95
2022-09-12T23:41:17.905Z,7.32
2022-09-12T23:44:20.100Z,7.90
2022-09-12T23:47:22.507Z,5.87
2022-09-12T23:50:24.719Z,6.15
2022-09-12T23:53:27.258Z,8.68
2022-09-12T23:56:29.366Z,6.30
2022-09-12T23:59:31.501Z,8.68
